createdAt,value
2023-07-29T00:02:58.625Z,26.67
2023-07-29T00:06:03.634Z,28.90
2023-07-29T00:09:08.501Z,26.27
2023-07-29T00:12:12.980Z,23.55
2023-07-29T00:15:17.595Z,22.15
2023-07-29T00:18:21.848Z,23.20
2023-07-29T00:21:26.511Z,28.90
2023-07-29T00:24:31.555Z,21.63
2023-07-29T00:27:36.175Z,23.70
2023-07-29T00:30:40.632Z,20.70
2023-07-29T00:33:44.888Z,23.20
2023-07-29T00:36:49.496Z,20.77
2023-07-29T00:39:53.982Z,16.27
2023-07-29T00:42:58.271Z,17.65
2023-07-29T00:46:02.605Z,19.48
2023-07-29T00:49:06.983Z,13.90
2023-07-29T00:52:13.472Z,17.13
2023-07-29T00:55:18.705Z,18.25
2023-07-29T00:58:23.336Z,20.23
2023-07-29T01:01:28.037Z,18.70
2023-07-29T01:04:33.517Z,17.13
2023-07-29T01:08:11.658Z,13.10
2023-07-29T01:11:42.884Z,13.30
2023-07-29T01:15:01.465Z,26.40
2023-07-29T01:18:12.290Z,12.00
2023-07-29T01:21:18.113Z,17.38
2023-07-29T01:24:22.606Z,11.27
2023-07-29T01:27:27.828Z,11.70
2023-07-29T01:30:42.030Z,13.82
2023-07-29T01:37:16.459Z,13.93
2023-07-29T01:40:24.703Z,12.18
2023-07-29T01:43:31.791Z,11.05
2023-07-29T01:46:37.999Z,6.07
2023-07-29T01:49:43.298Z,8.10
2023-07-29T01:52:48.186Z,6.07
2023-07-29T01:55:52.915Z,10.02
2023-07-29T01:58:57.823Z,6.10
2023-07-29T02:02:02.006Z,8.50
2023-07-29T02:05:06.704Z,9.13
2023-07-29T02:08:12.479Z,10.50
2023-07-29T02:11:17.685Z,7.03
2023-07-29T02:14:22.229Z,6.47
2023-07-29T02:20:31.815Z,9.10
2023-07-29T02:23:36.222Z,6.88
2023-07-29T02:26:44.247Z,9.05
2023-07-29T02:29:49.710Z,10.00
2023-07-29T02:32:54.117Z,8.93
2023-07-29T02:35:58.545Z,7.10
2023-07-29T02:39:03.123Z,8.73
2023-07-29T02:42:08.241Z,14.82
2023-07-29T02:45:13.071Z,15.40
2023-07-29T02:48:17.534Z,19.02
2023-07-29T02:51:21.863Z,19.95
2023-07-29T02:54:26.492Z,23.30
2023-07-29T02:57:30.865Z,20.75
2023-07-29T03:00:35.180Z,24.00
2023-07-29T03:03:40.345Z,27.20
2023-07-29T03:06:46.309Z,87.20
2023-07-29T03:09:50.911Z,58.08
2023-07-29T03:16:12.839Z,32.35
2023-07-29T03:19:17.659Z,36.42
2023-07-29T03:22:22.207Z,24.10
2023-07-29T03:25:26.376Z,17.90
2023-07-29T03:28:34.397Z,35.63
2023-07-29T03:31:39.688Z,23.48
2023-07-29T03:34:44.288Z,11.45
2023-07-29T03:37:48.988Z,23.30
2023-07-29T03:40:54.540Z,27.38
2023-07-29T03:43:59.570Z,13.25
2023-07-29T03:47:04.260Z,26.13
2023-07-29T03:50:10.067Z,23.13
2023-07-29T03:53:14.429Z,9.98
2023-07-29T03:56:18.960Z,8.43
2023-07-29T03:59:24.005Z,8.02
2023-07-29T04:02:28.346Z,9.27
2023-07-29T04:05:32.668Z,6.93
2023-07-29T04:08:37.192Z,9.60
2023-07-29T04:11:41.718Z,8.63
2023-07-29T04:14:46.210Z,9.63
2023-07-29T04:17:50.669Z,12.80
2023-07-29T04:20:54.812Z,11.18
2023-07-29T04:23:59.035Z,17.40
2023-07-29T04:27:03.792Z,6.85
2023-07-29T04:30:09.401Z,9.90
2023-07-29T04:33:14.354Z,13.70
2023-07-29T04:36:18.913Z,9.48
2023-07-29T04:39:23.603Z,15.75
2023-07-29T04:42:28.253Z,39.50
2023-07-29T04:45:33.113Z,35.90
2023-07-29T04:48:37.388Z,90.93
2023-07-29T04:51:42.031Z,122.43
2023-07-29T04:54:46.186Z,121.82
2023-07-29T04:57:50.678Z,129.05
2023-07-29T05:00:55.330Z,123.43
2023-07-29T05:03:59.796Z,144.05
2023-07-29T05:07:04.450Z,194.60
2023-07-29T05:10:09.723Z,131.30
2023-07-29T05:13:13.893Z,223.52
2023-07-29T05:19:23.886Z,165.18
2023-07-29T05:22:32.256Z,170.50
2023-07-29T05:25:36.787Z,210.77
2023-07-29T05:28:42.536Z,218.82
2023-07-29T05:31:48.397Z,173.52
2023-07-29T05:34:55.663Z,242.07
2023-07-29T05:38:00.235Z,220.65
2023-07-29T05:41:06.432Z,238.90
2023-07-29T05:44:11.378Z,158.82
2023-07-29T05:47:19.875Z,206.20
2023-07-29T05:50:24.488Z,259.85
2023-07-29T05:53:28.892Z,267.95
2023-07-29T05:56:33.311Z,192.93
2023-07-29T05:59:37.673Z,273.10
2023-07-29T06:02:45.087Z,178.00
2023-07-29T06:05:53.708Z,273.02
2023-07-29T06:09:01.778Z,281.13
2023-07-29T06:12:06.619Z,244.95
2023-07-29T06:15:11.373Z,153.25
2023-07-29T06:18:16.036Z,188.07
2023-07-29T06:21:21.499Z,188.10
2023-07-29T06:24:26.270Z,256.58
2023-07-29T06:27:31.038Z,161.43
2023-07-29T06:30:35.348Z,169.70
2023-07-29T06:33:39.797Z,244.05
2023-07-29T06:36:45.260Z,237.70
2023-07-29T06:39:50.296Z,194.82
2023-07-29T06:42:54.920Z,267.10
2023-07-29T06:45:59.650Z,198.73
2023-07-29T06:52:22.519Z,194.27
2023-07-29T06:55:27.416Z,243.75
2023-07-29T06:58:31.956Z,199.05
2023-07-29T07:01:36.416Z,197.05
2023-07-29T07:04:40.825Z,140.82
2023-07-29T07:07:45.482Z,152.95
2023-07-29T07:10:50.272Z,125.53
2023-07-29T07:13:54.970Z,239.15
2023-07-29T07:16:59.626Z,178.40
2023-07-29T07:20:04.735Z,204.65
2023-07-29T07:23:12.536Z,208.45
2023-07-29T07:26:17.768Z,175.88
2023-07-29T07:29:22.454Z,115.63
2023-07-29T07:32:27.765Z,208.88
2023-07-29T07:35:32.500Z,212.93
2023-07-29T07:38:37.801Z,184.23
2023-07-29T07:41:42.968Z,201.35
2023-07-29T07:44:47.981Z,176.23
2023-07-29T07:47:54.871Z,217.07
2023-07-29T07:50:59.409Z,181.07
2023-07-29T07:54:04.307Z,181.18
2023-07-29T07:57:09.142Z,164.68
2023-07-29T08:00:17.077Z,180.57
2023-07-29T08:03:21.746Z,141.52
2023-07-29T08:06:26.418Z,148.95
2023-07-29T08:09:31.230Z,113.88
2023-07-29T08:12:35.740Z,104.68
2023-07-29T08:15:40.466Z,121.53
2023-07-29T08:18:45.577Z,114.55
2023-07-29T08:21:50.390Z,189.73
2023-07-29T08:24:54.679Z,112.78
2023-07-29T08:27:59.187Z,122.65
2023-07-29T08:31:04.999Z,186.48
2023-07-29T08:34:09.570Z,176.13
2023-07-29T08:37:14.360Z,113.00
2023-07-29T08:40:20.627Z,164.57
2023-07-29T08:43:32.077Z,152.80
2023-07-29T08:46:38.192Z,132.88
2023-07-29T08:49:43.639Z,106.10
2023-07-29T08:52:50.598Z,89.80
2023-07-29T08:55:56.835Z,93.38
2023-07-29T08:59:03.270Z,72.25
2023-07-29T09:02:08.424Z,82.90
2023-07-29T09:05:13.144Z,73.10
2023-07-29T09:08:18.497Z,69.88
2023-07-29T09:11:23.526Z,68.10
2023-07-29T09:14:28.814Z,59.67
2023-07-29T09:17:34.639Z,60.38
2023-07-29T09:20:39.458Z,57.08
2023-07-29T09:23:45.375Z,73.63
2023-07-29T09:26:55.179Z,55.38
2023-07-29T09:29:59.453Z,59.83
2023-07-29T09:33:03.854Z,55.00
2023-07-29T09:36:11.585Z,68.60
2023-07-29T09:39:16.387Z,62.70
2023-07-29T09:42:23.196Z,51.53
2023-07-29T09:45:28.452Z,55.30
2023-07-29T09:48:42.761Z,58.35
2023-07-29T09:51:47.384Z,44.00
2023-07-29T09:54:52.662Z,45.35
2023-07-29T09:58:04.204Z,44.85
2023-07-29T10:01:10.637Z,26.25
2023-07-29T10:04:16.170Z,38.63
2023-07-29T10:07:21.197Z,33.13
2023-07-29T10:10:27.053Z,33.13
2023-07-29T10:13:32.065Z,37.38
2023-07-29T10:16:39.823Z,34.30
2023-07-29T10:19:46.184Z,36.35
2023-07-29T10:22:52.388Z,34.20
2023-07-29T10:26:10.806Z,29.65
2023-07-29T10:29:21.502Z,24.08
2023-07-29T10:32:30.106Z,17.70
2023-07-29T10:35:35.287Z,13.63
2023-07-29T10:38:40.551Z,14.63
2023-07-29T10:42:06.416Z,9.35
2023-07-29T10:45:22.063Z,8.15
2023-07-29T10:48:38.236Z,11.95
2023-07-29T10:51:43.000Z,10.38
2023-07-29T10:54:50.317Z,7.07
2023-07-29T10:58:14.996Z,3.53
2023-07-29T11:01:31.417Z,3.97
2023-07-29T11:04:53.492Z,2.92
2023-07-29T11:07:58.269Z,2.08
2023-07-29T11:11:14.539Z,2.67
2023-07-29T11:14:21.982Z,2.08
2023-07-29T11:17:26.654Z,2.78
2023-07-29T11:20:34.794Z,2.65
2023-07-29T11:23:39.346Z,3.28
2023-07-29T11:26:48.290Z,3.78
2023-07-29T11:30:01.876Z,4.30
2023-07-29T11:33:06.250Z,4.95
2023-07-29T11:36:20.731Z,4.80
2023-07-29T11:39:25.270Z,5.95
2023-07-29T11:42:29.941Z,6.10
2023-07-29T11:45:42.539Z,2.83
2023-07-29T11:48:56.330Z,4.07
2023-07-29T11:52:02.076Z,5.65
2023-07-29T11:55:08.717Z,6.60
2023-07-29T11:58:13.100Z,1.95
2023-07-29T12:01:17.654Z,4.15
2023-07-29T12:04:22.270Z,3.17
2023-07-29T12:07:27.262Z,3.92
2023-07-29T12:10:32.707Z,4.10
2023-07-29T12:13:42.401Z,3.38
2023-07-29T12:16:50.118Z,4.40
2023-07-29T12:19:56.453Z,3.08
2023-07-29T12:23:06.568Z,3.97
2023-07-29T12:26:11.015Z,4.38
2023-07-29T12:29:17.830Z,5.75
2023-07-29T12:32:26.635Z,3.28
2023-07-29T12:35:39.095Z,3.08
2023-07-29T12:38:45.544Z,1.95
2023-07-29T12:41:52.298Z,5.47
2023-07-29T12:44:56.952Z,2.55
2023-07-29T12:48:09.024Z,3.88
2023-07-29T12:51:13.903Z,3.47
2023-07-29T12:54:18.224Z,3.70
2023-07-29T12:57:22.875Z,2.00
2023-07-29T13:00:30.021Z,6.30
2023-07-29T13:03:34.836Z,3.83
2023-07-29T13:06:40.042Z,4.22
2023-07-29T13:09:44.537Z,3.53
2023-07-29T13:12:50.009Z,5.80
2023-07-29T13:15:55.231Z,1.40
2023-07-29T13:19:00.128Z,4.78
2023-07-29T13:22:05.098Z,3.88
2023-07-29T13:25:09.576Z,7.78
2023-07-29T13:28:14.406Z,2.83
2023-07-29T13:31:18.985Z,3.58
2023-07-29T13:34:23.568Z,4.78
2023-07-29T13:37:28.009Z,6.65
2023-07-29T13:40:33.328Z,3.83
2023-07-29T13:43:37.492Z,2.45
2023-07-29T13:46:41.890Z,1.60
2023-07-29T13:49:46.481Z,5.03
2023-07-29T13:52:51.064Z,3.33
2023-07-29T13:55:56.219Z,2.97
2023-07-29T13:59:00.602Z,2.97
2023-07-29T14:02:07.944Z,4.07
2023-07-29T14:05:13.073Z,7.03
2023-07-29T14:08:17.723Z,4.13
2023-07-29T14:11:22.111Z,4.45
2023-07-29T14:14:27.098Z,4.20
2023-07-29T14:17:32.675Z,4.35
2023-07-29T14:20:38.883Z,5.45
2023-07-29T14:23:43.530Z,2.50
2023-07-29T14:26:47.812Z,3.20
2023-07-29T14:29:52.760Z,4.82
2023-07-29T14:32:57.507Z,6.20
2023-07-29T14:39:20.867Z,4.90
2023-07-29T14:42:27.740Z,3.08
2023-07-29T14:45:32.286Z,3.67
2023-07-29T14:48:36.554Z,3.90
2023-07-29T14:51:41.768Z,5.25
2023-07-29T14:54:46.509Z,5.10
2023-07-29T14:57:50.956Z,6.50
2023-07-29T15:00:55.179Z,6.38
2023-07-29T15:03:59.450Z,9.77
2023-07-29T15:07:04.365Z,7.13
2023-07-29T15:10:09.013Z,3.78
2023-07-29T15:13:13.420Z,3.97
2023-07-29T15:16:18.196Z,8.27
2023-07-29T15:19:22.706Z,5.65
2023-07-29T15:22:27.394Z,2.58
2023-07-29T15:25:32.155Z,4.45
2023-07-29T15:28:36.848Z,4.32
2023-07-29T15:31:42.708Z,5.68
2023-07-29T15:34:47.022Z,5.68
2023-07-29T15:37:51.956Z,3.85
2023-07-29T15:40:56.897Z,4.93
2023-07-29T15:44:02.144Z,7.88
2023-07-29T15:47:07.313Z,5.68
2023-07-29T15:50:12.094Z,6.00
2023-07-29T15:53:16.454Z,6.47
2023-07-29T15:56:21.123Z,5.72
2023-07-29T15:59:27.223Z,4.13
2023-07-29T16:02:31.921Z,9.30
2023-07-29T16:05:36.919Z,5.63
2023-07-29T16:08:41.053Z,7.68
2023-07-29T16:11:45.537Z,6.35
2023-07-29T16:14:52.164Z,6.75
2023-07-29T16:17:59.309Z,5.93
2023-07-29T16:21:04.012Z,5.05
2023-07-29T16:24:08.571Z,6.00
2023-07-29T16:27:12.948Z,3.67
2023-07-29T16:30:18.095Z,6.47
2023-07-29T16:33:22.489Z,2.80
2023-07-29T16:36:27.124Z,4.47
2023-07-29T16:39:31.886Z,7.53
2023-07-29T16:42:36.290Z,5.88
2023-07-29T16:45:40.865Z,8.20
2023-07-29T16:48:45.102Z,5.78
2023-07-29T16:51:53.682Z,6.10
2023-07-29T16:54:58.326Z,3.95
2023-07-29T16:58:02.623Z,5.90
2023-07-29T17:01:07.497Z,4.88
2023-07-29T17:04:13.149Z,6.40
2023-07-29T17:07:18.223Z,3.05
2023-07-29T17:10:22.556Z,7.03
2023-07-29T17:13:28.022Z,5.47
2023-07-29T17:16:32.482Z,2.05
2023-07-29T17:19:37.305Z,2.70
2023-07-29T17:22:42.078Z,5.32
2023-07-29T17:25:46.433Z,5.80
2023-07-29T17:28:50.701Z,4.22
2023-07-29T17:31:55.331Z,3.53
2023-07-29T17:34:59.906Z,3.70
2023-07-29T17:38:12.928Z,4.38
2023-07-29T17:41:17.687Z,2.85
2023-07-29T17:44:22.125Z,6.35
2023-07-29T17:47:27.106Z,4.20
2023-07-29T17:50:34.416Z,4.68
2023-07-29T17:53:39.029Z,9.50
2023-07-29T17:56:43.579Z,5.75
2023-07-29T17:59:48.037Z,9.70
2023-07-29T18:02:53.487Z,3.72
2023-07-29T18:05:58.265Z,6.88
2023-07-29T18:09:02.857Z,5.25
2023-07-29T18:12:08.250Z,6.00
2023-07-29T18:15:12.560Z,9.05
2023-07-29T18:18:16.982Z,7.28
2023-07-29T18:21:21.534Z,5.97
2023-07-29T18:24:26.111Z,5.53
2023-07-29T18:27:31.046Z,5.68
2023-07-29T18:30:37.478Z,4.80
2023-07-29T18:33:41.887Z,12.48
2023-07-29T18:36:46.647Z,14.65
2023-07-29T18:39:51.335Z,7.80
2023-07-29T18:42:56.351Z,8.43
2023-07-29T18:46:01.061Z,5.57
2023-07-29T18:49:07.629Z,8.73
2023-07-29T18:52:12.441Z,10.45
2023-07-29T18:55:16.992Z,7.28
2023-07-29T18:58:21.368Z,9.32
2023-07-29T19:01:26.046Z,13.68
2023-07-29T19:04:31.043Z,6.03
2023-07-29T19:07:36.597Z,7.78
2023-07-29T19:10:41.043Z,9.23
2023-07-29T19:13:45.467Z,9.25
2023-07-29T19:16:52.423Z,10.40
2023-07-29T19:19:56.765Z,10.98
2023-07-29T19:23:01.321Z,10.65
2023-07-29T19:26:05.715Z,5.75
2023-07-29T19:29:13.703Z,11.70
2023-07-29T19:32:19.263Z,6.65
2023-07-29T19:35:27.781Z,6.22
2023-07-29T19:38:32.321Z,8.35
2023-07-29T19:41:37.050Z,8.60
2023-07-29T19:44:42.199Z,9.45
2023-07-29T19:47:46.939Z,11.25
2023-07-29T19:50:51.568Z,12.77
2023-07-29T19:53:55.793Z,10.18
2023-07-29T19:57:00.415Z,8.98
2023-07-29T20:00:05.770Z,8.93
2023-07-29T20:03:10.403Z,7.57
2023-07-29T20:06:15.286Z,9.27
2023-07-29T20:09:21.274Z,9.55
2023-07-29T20:12:26.028Z,16.30
2023-07-29T20:15:30.346Z,13.95
2023-07-29T20:18:34.684Z,9.90
2023-07-29T20:21:39.379Z,8.82
2023-07-29T20:24:44.210Z,7.72
2023-07-29T20:27:48.675Z,7.13
2023-07-29T20:31:00.397Z,6.10
2023-07-29T20:34:04.806Z,8.75
2023-07-29T20:37:09.084Z,15.10
2023-07-29T20:40:13.612Z,7.25
2023-07-29T20:43:18.227Z,12.52
2023-07-29T20:46:24.814Z,7.75
2023-07-29T20:49:29.559Z,13.02
2023-07-29T20:52:33.919Z,11.70
2023-07-29T20:55:38.400Z,9.60
2023-07-29T20:58:42.943Z,9.73
2023-07-29T21:01:47.920Z,10.95
2023-07-29T21:04:52.309Z,10.55
2023-07-29T21:07:56.652Z,10.65
2023-07-29T21:11:01.132Z,17.52
2023-07-29T21:14:05.411Z,12.70
2023-07-29T21:17:09.666Z,13.10
2023-07-29T21:20:14.935Z,15.45
2023-07-29T21:23:19.977Z,14.60
2023-07-29T21:26:24.968Z,16.88
2023-07-29T21:29:30.300Z,11.05
2023-07-29T21:32:34.736Z,10.95
2023-07-29T21:35:39.619Z,10.45
2023-07-29T21:38:44.302Z,10.70
2023-07-29T21:41:49.075Z,15.80
2023-07-29T21:44:53.581Z,13.13
2023-07-29T21:47:58.256Z,11.48
2023-07-29T21:51:02.551Z,10.43
2023-07-29T21:54:06.937Z,10.75
2023-07-29T21:57:11.337Z,13.57
2023-07-29T22:00:19.243Z,13.75
2023-07-29T22:03:23.839Z,10.40
2023-07-29T22:06:28.352Z,12.80
2023-07-29T22:09:32.851Z,16.80
2023-07-29T22:12:37.272Z,12.85
2023-07-29T22:15:41.896Z,18.48
2023-07-29T22:18:46.436Z,18.38
2023-07-29T22:21:51.571Z,16.33
2023-07-29T22:24:56.094Z,14.35
2023-07-29T22:28:00.766Z,15.25
2023-07-29T22:31:09.261Z,15.13
2023-07-29T22:34:14.249Z,14.05
2023-07-29T22:37:18.633Z,17.83
2023-07-29T22:40:23.382Z,15.60
2023-07-29T22:43:27.964Z,24.60
2023-07-29T22:46:32.406Z,22.50
2023-07-29T22:49:36.771Z,19.05
2023-07-29T22:52:41.178Z,20.92
2023-07-29T22:55:47.374Z,19.83
2023-07-29T22:58:51.968Z,13.77
2023-07-29T23:05:00.851Z,21.17
2023-07-29T23:08:05.918Z,13.00
2023-07-29T23:11:10.479Z,17.42
2023-07-29T23:14:15.002Z,15.25
2023-07-29T23:17:19.110Z,20.50
2023-07-29T23:20:25.894Z,14.50
2023-07-29T23:23:31.610Z,14.85
2023-07-29T23:26:35.969Z,14.80
2023-07-29T23:29:40.543Z,20.15
2023-07-29T23:32:45.994Z,14.70
2023-07-29T23:35:50.793Z,22.70
2023-07-29T23:38:56.557Z,15.43
2023-07-29T23:42:00.693Z,19.70
2023-07-29T23:45:06.398Z,20.30
2023-07-29T23:48:10.869Z,25.25
2023-07-29T23:51:15.446Z,20.15
2023-07-29T23:54:19.850Z,22.13
2023-07-29T23:57:24.064Z,15.68
